sensor_id;sensor_type;location;lat;lon;timestamp;pressure;altitude;pressure_sealevel;temperature;humidity
26563;BME280;14217;50.986;5.826;2023-08-06T00:01:58;99740.56;;;24.89;45.25
26563;BME280;14217;50.986;5.826;2023-08-06T00:07:00;99739.16;;;24.85;45.16
26563;BME280;14217;50.986;5.826;2023-08-06T00:12:02;99738.88;;;24.88;45.35
26563;BME280;14217;50.986;5.826;2023-08-06T00:17:04;99731.81;;;24.87;45.35
26563;BME280;14217;50.986;5.826;2023-08-06T00:22:06;99727.34;;;24.88;45.33
26563;BME280;14217;50.986;5.826;2023-08-06T00:27:08;99720.38;;;24.85;45.31
26563;BME280;14217;50.986;5.826;2023-08-06T00:32:11;99711.25;;;24.88;45.26
26563;BME280;14217;50.986;5.826;2023-08-06T00:37:13;99721.09;;;24.87;45.28
26563;BME280;14217;50.986;5.826;2023-08-06T00:42:15;99718.72;;;24.84;45.26
26563;BME280;14217;50.986;5.826;2023-08-06T00:47:19;99710.38;;;24.87;45.16
26563;BME280;14217;50.986;5.826;2023-08-06T00:52:21;99707.72;;;24.87;45.18
26563;BME280;14217;50.986;5.826;2023-08-06T00:57:24;99711.38;;;24.86;45.19
26563;BME280;14217;50.986;5.826;2023-08-06T01:02:27;99717.72;;;24.85;45.14
26563;BME280;14217;50.986;5.826;2023-08-06T01:07:46;99714.78;;;24.88;45.01
26563;BME280;14217;50.986;5.826;2023-08-06T01:13:11;99717.47;;;24.88;44.79
26563;BME280;14217;50.986;5.826;2023-08-06T01:18:16;99716.88;;;24.85;44.99
26563;BME280;14217;50.986;5.826;2023-08-06T01:23:19;99722.22;;;24.85;45.37
26563;BME280;14217;50.986;5.826;2023-08-06T01:28:48;99718.00;;;24.82;45.24
26563;BME280;14217;50.986;5.826;2023-08-06T01:33:53;99713.78;;;24.89;44.97
26563;BME280;14217;50.986;5.826;2023-08-06T01:38:57;99711.38;;;24.86;45.22
26563;BME280;14217;50.986;5.826;2023-08-06T01:43:59;99715.50;;;24.90;45.11
26563;BME280;14217;50.986;5.826;2023-08-06T01:49:01;99708.84;;;24.85;44.86
26563;BME280;14217;50.986;5.826;2023-08-06T01:54:03;99707.28;;;24.82;45.00
26563;BME280;14217;50.986;5.826;2023-08-06T01:59:05;99706.16;;;24.85;44.92
26563;BME280;14217;50.986;5.826;2023-08-06T02:04:07;99699.84;;;24.86;45.15
26563;BME280;14217;50.986;5.826;2023-08-06T02:09:09;99701.94;;;24.82;44.99
26563;BME280;14217;50.986;5.826;2023-08-06T02:14:11;99697.69;;;24.89;44.86
26563;BME280;14217;50.986;5.826;2023-08-06T02:19:14;99695.31;;;24.86;44.70
26563;BME280;14217;50.986;5.826;2023-08-06T02:24:16;99695.56;;;24.83;44.85
26563;BME280;14217;50.986;5.826;2023-08-06T02:29:18;99682.47;;;24.80;44.89
26563;BME280;14217;50.986;5.826;2023-08-06T02:34:20;99683.03;;;24.84;44.77
26563;BME280;14217;50.986;5.826;2023-08-06T02:39:22;99673.03;;;24.86;44.72
26563;BME280;14217;50.986;5.826;2023-08-06T02:44:27;99670.75;;;24.81;44.69
26563;BME280;14217;50.986;5.826;2023-08-06T02:49:29;99667.53;;;24.78;44.98
26563;BME280;14217;50.986;5.826;2023-08-06T02:54:31;99662.00;;;24.79;45.04
26563;BME280;14217;50.986;5.826;2023-08-06T02:59:32;99659.31;;;24.79;44.86
26563;BME280;14217;50.986;5.826;2023-08-06T03:04:34;99656.25;;;24.84;44.82
26563;BME280;14217;50.986;5.826;2023-08-06T03:09:36;99648.47;;;24.81;44.82
26563;BME280;14217;50.986;5.826;2023-08-06T03:14:38;99646.63;;;24.81;44.86
26563;BME280;14217;50.986;5.826;2023-08-06T03:19:40;99651.75;;;24.84;44.76
26563;BME280;14217;50.986;5.826;2023-08-06T03:24:42;99646.81;;;24.80;44.76
26563;BME280;14217;50.986;5.826;2023-08-06T03:29:44;99650.31;;;24.80;44.92
26563;BME280;14217;50.986;5.826;2023-08-06T03:34:47;99646.63;;;24.81;44.84
26563;BME280;14217;50.986;5.826;2023-08-06T03:39:49;99653.13;;;24.79;44.84
26563;BME280;14217;50.986;5.826;2023-08-06T03:44:51;99650.31;;;24.80;44.85
26563;BME280;14217;50.986;5.826;2023-08-06T03:49:53;99644.38;;;24.77;45.08
26563;BME280;14217;50.986;5.826;2023-08-06T03:54:54;99648.06;;;24.75;44.75
26563;BME280;14217;50.986;5.826;2023-08-06T03:59:56;99639.31;;;24.83;44.69
26563;BME280;14217;50.986;5.826;2023-08-06T04:04:58;99645.81;;;24.81;44.86
26563;BME280;14217;50.986;5.826;2023-08-06T04:10:03;99642.41;;;24.79;44.93
26563;BME280;14217;50.986;5.826;2023-08-06T04:15:05;99643.97;;;24.81;44.71
26563;BME280;14217;50.986;5.826;2023-08-06T04:20:08;99657.66;;;24.78;44.77
26563;BME280;14217;50.986;5.826;2023-08-06T04:25:10;99649.75;;;24.77;44.84
26563;BME280;14217;50.986;5.826;2023-08-06T04:30:12;99651.72;;;24.74;45.05
26563;BME280;14217;50.986;5.826;2023-08-06T04:35:14;99653.69;;;24.72;44.94
26563;BME280;14217;50.986;5.826;2023-08-06T04:40:16;99658.06;;;24.73;45.16
26563;BME280;14217;50.986;5.826;2023-08-06T04:45:18;99657.91;;;24.75;45.10
26563;BME280;14217;50.986;5.826;2023-08-06T04:50:20;99666.66;;;24.77;44.77
26563;BME280;14217;50.986;5.826;2023-08-06T04:55:22;99668.91;;;24.72;44.96
26563;BME280;14217;50.986;5.826;2023-08-06T05:00:24;99673.44;;;24.71;44.91
26563;BME280;14217;50.986;5.826;2023-08-06T05:05:26;99673.56;;;24.70;44.74
26563;BME280;14217;50.986;5.826;2023-08-06T05:10:28;99678.22;;;24.78;44.65
26563;BME280;14217;50.986;5.826;2023-08-06T05:15:30;99690.63;;;24.79;44.73
26563;BME280;14217;50.986;5.826;2023-08-06T05:20:36;99687.38;;;24.75;44.74
26563;BME280;14217;50.986;5.826;2023-08-06T05:25:38;99693.13;;;24.70;44.97
26563;BME280;14217;50.986;5.826;2023-08-06T05:30:41;99699.63;;;24.68;45.22
26563;BME280;14217;50.986;5.826;2023-08-06T05:35:43;99711.06;;;24.70;45.07
26563;BME280;14217;50.986;5.826;2023-08-06T05:40:45;99715.44;;;24.71;44.97
26563;BME280;14217;50.986;5.826;2023-08-06T05:45:49;99720.63;;;24.72;45.02
26563;BME280;14217;50.986;5.826;2023-08-06T05:50:52;99725.88;;;24.74;45.09
26563;BME280;14217;50.986;5.826;2023-08-06T05:55:54;99733.19;;;24.72;44.87
26563;BME280;14217;50.986;5.826;2023-08-06T06:00:56;99735.16;;;24.70;44.87
26563;BME280;14217;50.986;5.826;2023-08-06T06:06:00;99746.72;;;24.70;44.86
26563;BME280;14217;50.986;5.826;2023-08-06T06:11:02;99756.34;;;24.73;44.98
26563;BME280;14217;50.986;5.826;2023-08-06T06:16:04;99761.81;;;24.71;44.98
26563;BME280;14217;50.986;5.826;2023-08-06T06:21:07;99773.66;;;24.69;45.28
26563;BME280;14217;50.986;5.826;2023-08-06T06:26:09;99779.38;;;24.64;44.99
26563;BME280;14217;50.986;5.826;2023-08-06T06:31:11;99795.50;;;24.74;44.92
26563;BME280;14217;50.986;5.826;2023-08-06T06:36:13;99804.25;;;24.76;45.11
26563;BME280;14217;50.986;5.826;2023-08-06T06:41:15;99808.78;;;24.75;44.88
26563;BME280;14217;50.986;5.826;2023-08-06T06:46:17;99815.50;;;24.70;44.93
26563;BME280;14217;50.986;5.826;2023-08-06T06:51:19;99815.38;;;24.71;45.05
26563;BME280;14217;50.986;5.826;2023-08-06T06:56:21;99822.44;;;24.72;45.06
26563;BME280;14217;50.986;5.826;2023-08-06T07:01:23;99831.47;;;24.71;45.03
26563;BME280;14217;50.986;5.826;2023-08-06T07:06:25;99843.72;;;24.74;44.97
26563;BME280;14217;50.986;5.826;2023-08-06T07:11:27;99840.34;;;24.72;45.06
26563;BME280;14217;50.986;5.826;2023-08-06T07:16:29;99840.63;;;24.69;45.41
26563;BME280;14217;50.986;5.826;2023-08-06T07:21:31;99865.56;;;24.69;45.24
26563;BME280;14217;50.986;5.826;2023-08-06T07:26:34;99865.59;;;24.79;44.94
26563;BME280;14217;50.986;5.826;2023-08-06T07:31:36;99886.59;;;24.74;45.02
26563;BME280;14217;50.986;5.826;2023-08-06T07:36:38;99895.63;;;24.73;44.82
26563;BME280;14217;50.986;5.826;2023-08-06T07:41:40;99909.69;;;24.75;44.68
26563;BME280;14217;50.986;5.826;2023-08-06T07:46:43;99919.97;;;24.70;45.27
26563;BME280;14217;50.986;5.826;2023-08-06T07:51:45;99940.69;;;24.68;45.43
26563;BME280;14217;50.986;5.826;2023-08-06T07:56:47;99942.00;;;24.73;45.07
26563;BME280;14217;50.986;5.826;2023-08-06T08:01:49;99947.34;;;24.73;45.17
26563;BME280;14217;50.986;5.826;2023-08-06T08:06:50;99952.25;;;24.68;45.29
26563;BME280;14217;50.986;5.826;2023-08-06T08:11:52;99958.19;;;24.72;44.94
26563;BME280;14217;50.986;5.826;2023-08-06T08:16:55;99959.75;;;24.74;44.92
26563;BME280;14217;50.986;5.826;2023-08-06T08:21:57;99968.91;;;24.72;45.06
26563;BME280;14217;50.986;5.826;2023-08-06T08:26:59;99977.22;;;24.69;45.20
26563;BME280;14217;50.986;5.826;2023-08-06T08:32:01;99988.66;;;24.71;45.06
26563;BME280;14217;50.986;5.826;2023-08-06T08:37:03;99994.13;;;24.69;45.37
26563;BME280;14217;50.986;5.826;2023-08-06T08:42:06;100004.72;;;24.71;44.75
26563;BME280;14217;50.986;5.826;2023-08-06T08:47:10;100019.81;;;24.72;45.03
26563;BME280;14217;50.986;5.826;2023-08-06T08:52:15;100032.25;;;24.73;44.98
26563;BME280;14217;50.986;5.826;2023-08-06T08:57:17;100042.22;;;24.71;45.06
26563;BME280;14217;50.986;5.826;2023-08-06T09:02:21;100047.81;;;24.68;45.10
26563;BME280;14217;50.986;5.826;2023-08-06T09:07:23;100059.03;;;24.73;44.77
26563;BME280;14217;50.986;5.826;2023-08-06T09:12:26;100071.81;;;24.69;45.07
26563;BME280;14217;50.986;5.826;2023-08-06T09:17:28;100069.03;;;24.71;44.88
26563;BME280;14217;50.986;5.826;2023-08-06T09:22:34;100077.28;;;24.68;45.08
26563;BME280;14217;50.986;5.826;2023-08-06T09:27:37;100083.38;;;24.70;44.93
26563;BME280;14217;50.986;5.826;2023-08-06T09:32:46;100087.28;;;24.66;45.11
26563;BME280;14217;50.986;5.826;2023-08-06T09:37:54;100098.84;;;24.66;45.14
26563;BME280;14217;50.986;5.826;2023-08-06T09:42:57;100102.63;;;24.64;45.24
26563;BME280;14217;50.986;5.826;2023-08-06T09:48:01;100108.72;;;24.66;45.15
26563;BME280;14217;50.986;5.826;2023-08-06T09:53:05;100125.38;;;24.69;45.06
26563;BME280;14217;50.986;5.826;2023-08-06T09:58:08;100126.50;;;24.67;45.08
26563;BME280;14217;50.986;5.826;2023-08-06T10:03:10;100136.34;;;24.66;45.12
26563;BME280;14217;50.986;5.826;2023-08-06T10:08:15;100138.19;;;24.66;45.08
26563;BME280;14217;50.986;5.826;2023-08-06T10:13:19;100146.22;;;24.66;45.16
26563;BME280;14217;50.986;5.826;2023-08-06T10:18:24;100150.72;;;24.65;45.14
26563;BME280;14217;50.986;5.826;2023-08-06T10:23:33;100153.53;;;24.64;45.16
26563;BME280;14217;50.986;5.826;2023-08-06T10:28:37;100148.88;;;24.66;45.23
26563;BME280;14217;50.986;5.826;2023-08-06T10:33:43;100160.31;;;24.68;45.31
26563;BME280;14217;50.986;5.826;2023-08-06T10:38:48;100164.72;;;24.69;44.96
26563;BME280;14217;50.986;5.826;2023-08-06T10:43:50;100160.31;;;24.68;45.13
26563;BME280;14217;50.986;5.826;2023-08-06T10:48:53;100156.94;;;24.66;45.24
26563;BME280;14217;50.986;5.826;2023-08-06T10:53:55;100174.72;;;24.67;45.30
26563;BME280;14217;50.986;5.826;2023-08-06T10:58:58;100174.09;;;24.63;45.08
26563;BME280;14217;50.986;5.826;2023-08-06T11:04:02;100164.13;;;24.65;45.18
26563;BME280;14217;50.986;5.826;2023-08-06T11:09:04;100172.16;;;24.65;45.21
26563;BME280;14217;50.986;5.826;2023-08-06T11:14:06;100162.06;;;24.69;45.18
26563;BME280;14217;50.986;5.826;2023-08-06T11:19:08;100167.63;;;24.66;45.17
26563;BME280;14217;50.986;5.826;2023-08-06T11:24:10;100174.09;;;24.63;45.31
26563;BME280;14217;50.986;5.826;2023-08-06T11:29:12;100176.66;;;24.65;45.30
26563;BME280;14217;50.986;5.826;2023-08-06T11:34:16;100174.22;;;24.62;45.23
26563;BME280;14217;50.986;5.826;2023-08-06T11:39:18;100183.72;;;24.66;45.01
26563;BME280;14217;50.986;5.826;2023-08-06T11:44:21;100190.91;;;24.65;45.43
26563;BME280;14217;50.986;5.826;2023-08-06T11:54:47;100204.28;;;24.65;45.28
26563;BME280;14217;50.986;5.826;2023-08-06T11:59:49;100208.09;;;24.63;45.55
26563;BME280;14217;50.986;5.826;2023-08-06T12:10:07;100217.69;;;24.65;45.29
26563;BME280;14217;50.986;5.826;2023-08-06T12:15:10;100216.59;;;24.68;45.15
26563;BME280;14217;50.986;5.826;2023-08-06T12:20:12;100217.06;;;24.62;45.52
26563;BME280;14217;50.986;5.826;2023-08-06T12:25:14;100228.88;;;24.59;45.12
26563;BME280;14217;50.986;5.826;2023-08-06T12:30:16;100232.78;;;24.66;45.16
26563;BME280;14217;50.986;5.826;2023-08-06T12:35:18;100240.34;;;24.61;45.40
26563;BME280;14217;50.986;5.826;2023-08-06T12:40:21;100245.44;;;24.64;45.15
26563;BME280;14217;50.986;5.826;2023-08-06T12:45:38;100243.63;;;24.65;45.20
26563;BME280;14217;50.986;5.826;2023-08-06T12:50:40;100246.78;;;24.70;45.12
26563;BME280;14217;50.986;5.826;2023-08-06T12:55:42;100246.16;;;24.66;45.04
26563;BME280;14217;50.986;5.826;2023-08-06T13:00:44;100270.28;;;24.66;45.17
26563;BME280;14217;50.986;5.826;2023-08-06T13:05:46;100259.56;;;24.66;45.48
26563;BME280;14217;50.986;5.826;2023-08-06T13:10:48;100264.31;;;24.63;45.28
26563;BME280;14217;50.986;5.826;2023-08-06T13:15:50;100269.78;;;24.61;45.39
26563;BME280;14217;50.986;5.826;2023-08-06T13:20:53;100273.69;;;24.68;45.32
26563;BME280;14217;50.986;5.826;2023-08-06T13:25:56;100284.66;;;24.65;45.42
26563;BME280;14217;50.986;5.826;2023-08-06T13:30:58;100274.06;;;24.64;45.31
26563;BME280;14217;50.986;5.826;2023-08-06T13:36:00;100284.75;;;24.64;45.17
26563;BME280;14217;50.986;5.826;2023-08-06T13:41:02;100294.53;;;24.65;45.03
26563;BME280;14217;50.986;5.826;2023-08-06T13:46:04;100290.50;;;24.59;45.77
26563;BME280;14217;50.986;5.826;2023-08-06T13:51:06;100305.72;;;24.59;45.53
26563;BME280;14217;50.986;5.826;2023-08-06T13:56:09;100301.31;;;24.58;46.51
26563;BME280;14217;50.986;5.826;2023-08-06T14:01:17;100297.19;;;24.53;46.41
26563;BME280;14217;50.986;5.826;2023-08-06T14:06:20;100294.50;;;24.53;46.25
26563;BME280;14217;50.986;5.826;2023-08-06T14:11:22;100293.75;;;24.51;46.59
26563;BME280;14217;50.986;5.826;2023-08-06T14:16:24;100303.50;;;24.64;47.29
26563;BME280;14217;50.986;5.826;2023-08-06T14:21:26;100312.75;;;24.48;46.03
26563;BME280;14217;50.986;5.826;2023-08-06T14:26:28;100314.50;;;24.61;45.65
26563;BME280;14217;50.986;5.826;2023-08-06T14:31:30;100331.03;;;24.66;45.48
26563;BME280;14217;50.986;5.826;2023-08-06T14:36:32;100339.59;;;24.71;45.32
26563;BME280;14217;50.986;5.826;2023-08-06T14:41:34;100351.25;;;24.59;46.14
26563;BME280;14217;50.986;5.826;2023-08-06T14:46:36;100350.63;;;24.66;46.11
26563;BME280;14217;50.986;5.826;2023-08-06T14:51:38;100354.78;;;24.70;45.62
26563;BME280;14217;50.986;5.826;2023-08-06T14:56:40;100360.88;;;24.72;45.31
26563;BME280;14217;50.986;5.826;2023-08-06T15:01:42;100368.53;;;24.77;45.94
26563;BME280;14217;50.986;5.826;2023-08-06T15:06:44;100373.78;;;24.67;45.76
26563;BME280;14217;50.986;5.826;2023-08-06T15:11:46;100373.53;;;24.70;45.90
26563;BME280;14217;50.986;5.826;2023-08-06T15:16:49;100369.06;;;24.71;45.73
26563;BME280;14217;50.986;5.826;2023-08-06T15:21:53;100378.53;;;24.75;45.81
26563;BME280;14217;50.986;5.826;2023-08-06T15:26:55;100389.50;;;24.72;45.88
26563;BME280;14217;50.986;5.826;2023-08-06T15:31:57;100391.69;;;24.78;45.46
26563;BME280;14217;50.986;5.826;2023-08-06T15:36:59;100394.59;;;24.75;45.53
26563;BME280;14217;50.986;5.826;2023-08-06T15:42:01;100406.31;;;24.74;45.58
26563;BME280;14217;50.986;5.826;2023-08-06T15:47:04;100417.75;;;24.76;45.60
26563;BME280;14217;50.986;5.826;2023-08-06T15:52:06;100423.22;;;24.74;45.28
26563;BME280;14217;50.986;5.826;2023-08-06T15:57:08;100428.94;;;24.70;46.13
26563;BME280;14217;50.986;5.826;2023-08-06T16:02:10;100435.16;;;24.70;46.48
26563;BME280;14217;50.986;5.826;2023-08-06T16:07:14;100452.31;;;24.68;46.75
26563;BME280;14217;50.986;5.826;2023-08-06T16:12:17;100455.84;;;24.68;46.55
26563;BME280;14217;50.986;5.826;2023-08-06T16:17:21;100473.66;;;24.69;46.98
26563;BME280;14217;50.986;5.826;2023-08-06T16:22:25;100476.69;;;24.65;47.11
26563;BME280;14217;50.986;5.826;2023-08-06T16:27:27;100491.03;;;24.64;46.96
26563;BME280;14217;50.986;5.826;2023-08-06T16:32:29;100495.28;;;24.66;47.04
26563;BME280;14217;50.986;5.826;2023-08-06T16:37:31;100501.75;;;24.64;46.98
26563;BME280;14217;50.986;5.826;2023-08-06T16:42:33;100520.38;;;24.65;46.87
26563;BME280;14217;50.986;5.826;2023-08-06T16:47:35;100525.63;;;24.67;46.95
26563;BME280;14217;50.986;5.826;2023-08-06T16:52:36;100534.00;;;24.62;46.95
26563;BME280;14217;50.986;5.826;2023-08-06T16:57:39;100539.25;;;24.64;46.79
26563;BME280;14217;50.986;5.826;2023-08-06T17:02:41;100549.97;;;24.64;47.02
26563;BME280;14217;50.986;5.826;2023-08-06T17:07:43;100559.09;;;24.61;47.11
26563;BME280;14217;50.986;5.826;2023-08-06T17:12:46;100558.16;;;24.49;47.20
26563;BME280;14217;50.986;5.826;2023-08-06T17:17:48;100575.97;;;24.50;47.44
26563;BME280;14217;50.986;5.826;2023-08-06T17:22:51;100600.25;;;24.47;47.70
26563;BME280;14217;50.986;5.826;2023-08-06T17:27:53;100603.81;;;24.48;47.35
26563;BME280;14217;50.986;5.826;2023-08-06T17:32:55;100616.88;;;24.52;47.93
26563;BME280;14217;50.986;5.826;2023-08-06T17:37:57;100618.81;;;24.50;49.02
26563;BME280;14217;50.986;5.826;2023-08-06T17:43:01;100626.28;;;24.45;49.31
26563;BME280;14217;50.986;5.826;2023-08-06T17:48:03;100629.84;;;24.46;48.36
26563;BME280;14217;50.986;5.826;2023-08-06T17:53:05;100637.66;;;24.49;48.14
26563;BME280;14217;50.986;5.826;2023-08-06T17:58:08;100637.47;;;24.52;48.30
26563;BME280;14217;50.986;5.826;2023-08-06T18:03:10;100650.38;;;24.45;47.97
26563;BME280;14217;50.986;5.826;2023-08-06T18:08:12;100657.16;;;24.51;47.54
26563;BME280;14217;50.986;5.826;2023-08-06T18:13:14;100659.09;;;24.49;47.41
26563;BME280;14217;50.986;5.826;2023-08-06T18:18:16;100660.88;;;24.48;47.67
26563;BME280;14217;50.986;5.826;2023-08-06T18:23:18;100658.88;;;24.52;47.50
26563;BME280;14217;50.986;5.826;2023-08-06T18:28:20;100667.03;;;24.50;47.67
26563;BME280;14217;50.986;5.826;2023-08-06T18:33:22;100676.00;;;24.49;47.35
26563;BME280;14217;50.986;5.826;2023-08-06T18:38:24;100677.91;;;24.47;47.41
26563;BME280;14217;50.986;5.826;2023-08-06T18:43:28;100677.75;;;24.50;47.21
26563;BME280;14217;50.986;5.826;2023-08-06T18:48:30;100677.75;;;24.50;47.23
26563;BME280;14217;50.986;5.826;2023-08-06T18:53:33;100683.09;;;24.50;46.99
26563;BME280;14217;50.986;5.826;2023-08-06T18:58:35;100688.63;;;24.47;47.32
26563;BME280;14217;50.986;5.826;2023-08-06T19:03:37;100694.88;;;24.48;46.87
26563;BME280;14217;50.986;5.826;2023-08-06T19:08:39;100697.22;;;24.40;46.54
26563;BME280;14217;50.986;5.826;2023-08-06T19:13:41;100703.19;;;24.43;46.60
26563;BME280;14217;50.986;5.826;2023-08-06T19:18:43;100706.88;;;24.42;46.20
26563;BME280;14217;50.986;5.826;2023-08-06T19:23:45;100711.47;;;24.40;46.23
26563;BME280;14217;50.986;5.826;2023-08-06T19:28:47;100715.22;;;24.38;46.17
26563;BME280;14217;50.986;5.826;2023-08-06T19:33:50;100722.09;;;24.42;47.39
26563;BME280;14217;50.986;5.826;2023-08-06T19:38:52;100716.72;;;24.42;47.64
26563;BME280;14217;50.986;5.826;2023-08-06T19:43:54;100737.16;;;24.43;47.38
26563;BME280;14217;50.986;5.826;2023-08-06T19:48:56;100732.78;;;24.42;47.25
26563;BME280;14217;50.986;5.826;2023-08-06T19:54:02;100737.28;;;24.41;47.08
26563;BME280;14217;50.986;5.826;2023-08-06T19:59:05;100750.56;;;24.43;46.77
26563;BME280;14217;50.986;5.826;2023-08-06T20:04:06;100743.19;;;24.33;46.77
26563;BME280;14217;50.986;5.826;2023-08-06T20:09:08;100752.06;;;24.34;46.45
26563;BME280;14217;50.986;5.826;2023-08-06T20:14:11;100754.00;;;24.32;46.40
26563;BME280;14217;50.986;5.826;2023-08-06T20:19:13;100757.84;;;24.28;46.07
26563;BME280;14217;50.986;5.826;2023-08-06T20:24:15;100759.25;;;24.33;46.07
26563;BME280;14217;50.986;5.826;2023-08-06T20:29:17;100769.22;;;24.44;45.46
26563;BME280;14217;50.986;5.826;2023-08-06T20:34:19;100770.63;;;24.50;45.19
26563;BME280;14217;50.986;5.826;2023-08-06T20:39:21;100774.06;;;24.52;45.44
26563;BME280;14217;50.986;5.826;2023-08-06T20:44:23;100766.66;;;24.55;45.45
26563;BME280;14217;50.986;5.826;2023-08-06T20:49:25;100764.94;;;24.54;45.27
26563;BME280;14217;50.986;5.826;2023-08-06T20:54:27;100767.63;;;24.54;45.19
26563;BME280;14217;50.986;5.826;2023-08-06T20:59:29;100769.97;;;24.59;45.18
26563;BME280;14217;50.986;5.826;2023-08-06T21:04:31;100770.31;;;24.54;45.41
26563;BME280;14217;50.986;5.826;2023-08-06T21:09:33;100762.38;;;24.53;45.26
26563;BME280;14217;50.986;5.826;2023-08-06T21:14:35;100764.72;;;24.58;45.14
26563;BME280;14217;50.986;5.826;2023-08-06T21:19:37;100772.00;;;24.55;45.33
26563;BME280;14217;50.986;5.826;2023-08-06T21:24:39;100769.44;;;24.54;45.27
26563;BME280;14217;50.986;5.826;2023-08-06T21:29:41;100779.28;;;24.53;45.23
26563;BME280;14217;50.986;5.826;2023-08-06T21:34:45;100776.19;;;24.60;44.93
26563;BME280;14217;50.986;5.826;2023-08-06T21:39:50;100775.66;;;24.54;44.87
26563;BME280;14217;50.986;5.826;2023-08-06T21:44:52;100768.25;;;24.58;44.71
26563;BME280;14217;50.986;5.826;2023-08-06T21:49:54;100772.53;;;24.61;44.59
26563;BME280;14217;50.986;5.826;2023-08-06T21:54:56;100769.00;;;24.60;44.62
26563;BME280;14217;50.986;5.826;2023-08-06T21:59:58;100771.81;;;24.59;44.93
26563;BME280;14217;50.986;5.826;2023-08-06T22:05:01;100765.47;;;24.60;44.67
26563;BME280;14217;50.986;5.826;2023-08-06T22:10:03;100765.13;;;24.64;44.53
26563;BME280;14217;50.986;5.826;2023-08-06T22:15:05;100768.78;;;24.63;44.59
26563;BME280;14217;50.986;5.826;2023-08-06T22:20:08;100767.38;;;24.58;44.88
26563;BME280;14217;50.986;5.826;2023-08-06T22:25:10;100765.78;;;24.55;44.67
26563;BME280;14217;50.986;5.826;2023-08-06T22:30:13;100767.63;;;24.54;44.64
26563;BME280;14217;50.986;5.826;2023-08-06T22:35:16;100767.19;;;24.61;44.29
26563;BME280;14217;50.986;5.826;2023-08-06T22:40:18;100771.81;;;24.59;44.55
26563;BME280;14217;50.986;5.826;2023-08-06T22:45:20;100773.50;;;24.60;44.45
26563;BME280;14217;50.986;5.826;2023-08-06T22:50:22;100781.00;;;24.54;44.47
26563;BME280;14217;50.986;5.826;2023-08-06T22:55:24;100781.53;;;24.60;44.24
26563;BME280;14217;50.986;5.826;2023-08-06T23:00:46;100778.22;;;24.56;44.55
26563;BME280;14217;50.986;5.826;2023-08-06T23:05:48;100787.84;;;24.46;44.68
26563;BME280;14217;50.986;5.826;2023-08-06T23:10:50;100785.28;;;24.57;44.34
26563;BME280;14217;50.986;5.826;2023-08-06T23:15:52;100781.88;;;24.55;44.23
26563;BME280;14217;50.986;5.826;2023-08-06T23:20:54;100795.16;;;24.57;44.44
26563;BME280;14217;50.986;5.826;2023-08-06T23:25:56;100783.69;;;24.54;44.36
26563;BME280;14217;50.986;5.826;2023-08-06T23:30:58;100783.56;;;24.56;44.22
26563;BME280;14217;50.986;5.826;2023-08-06T23:36:00;100786.25;;;24.56;44.27
26563;BME280;14217;50.986;5.826;2023-08-06T23:41:02;100781.53;;;24.60;44.12
26563;BME280;14217;50.986;5.826;2023-08-06T23:46:04;100782.84;;;24.54;44.23
26563;BME280;14217;50.986;5.826;2023-08-06T23:51:06;100785.53;;;24.54;44.40
26563;BME280;14217;50.986;5.826;2023-08-06T23:56:08;100787.97;;;24.57;43.94
